West Santa Ysabel (222, 637) Station Data

Red Flag Warning: No
Fire Weather Zone: 258
SDGE Region: Ramona
Lat/Lon: 33.087/-116.69

Observations

Time Wind Speed/Gust Temp(F) RH Fuel Moist Fuel Temp(F) Dewpt(F) Tmax(F) Tmin(F) Accum Precip 10-min Precip SL Press(mb)
4/26 2:50am 185 3 G 5 56° 49% - - 37° 56.9° 53.6° - - 873.0
4/26 2:40am 113 4 G 6 56° 49% - - 37° 56.9° 53.6° - - 873.0
4/26 2:30am 72 4 G 6 55° 51% - - 37° 56.9° 53.6° - - 873.0
4/26 2:20am 33 4 G 7 56° 47% - - 36° 56.9° 53.6° - - 872.0
4/26 2:10am 23 6 G 8 57° 46% - - 36° 56.9° 53.6° - - 872.0
4/26 2:00am 44 4 G 6 56° 47% - - 36° 56.9° 53.6° - - 872.0
4/26 1:50am 53 3 G 5 56° 50% - - 38° 56.7° 53.6° - - 873.0
4/26 1:40am 72 5 G 7 55° 53% - - 39° 55.9° 53.6° - - 875.0
4/26 1:30am 48 5 G 7 55° 56% - - 39° 55.8° 53.6° - - 875.0
4/26 1:20am 42 5 G 8 55° 55% - - 39° 55.8° 53.6° - - 875.0
4/26 1:10am 34 6 G 8 55° 54% - - 39° 55.8° 53.6° - - 875.0
4/26 1:00am 58 5 G 6 54° 60% - - 40° 55.3° 53.6° - - 877.0
4/26 12:50am 49 6 G 8 54° 60% - - 41° 55.3° 53.6° - - 877.0
4/26 12:40am 68 5 G 6 55° 58% - - 41° 55.3° 53.6° - - 877.0
4/26 12:30am 67 5 G 6 54° 61% - - 41° 54.8° 53.6° - - 878.0
4/26 12:20am 65 5 G 7 54° 63% - - 42° 54.4° 53.6° - - 878.0
4/26 12:10am 56 6 G 8 54° 65% - - 43° 54.4° 53.6° - - 879.0
4/26 12:00am 67 6 G 6 53° 70% - - 44° 59.7° 46.3° - - 881.0
4/25 11:50pm 70 6 G 6 52° 76% - - 44° 59.7° 46.3° - - 883.0
4/25 11:40pm 64 6 G 7 52° 79% - - 45° 59.7° 46.3° - - 885.0
4/25 11:30pm 65 6 G 7 51° 84% - - 46° 59.7° 46.3° - - 887.0
4/25 11:20pm 65 5 G 7 50° 88% - - 47° 59.7° 46.3° - - 888.0
4/25 11:10pm 64 5 G 6 51° 82% - - 46° 59.7° 46.3° - - 886.0
4/25 11:00pm 56 4 G 5 52° 81% - - 47° 59.7° 46.3° - - 885.0
4/25 10:50pm 76 3 G 3 52° 83% - - 47° 59.7° 46.3° - - 886.0
4/25 10:40pm 94 3 G 4 52° 86% - - 48° 59.7° 46.3° - - 888.0
4/25 10:30pm 86 4 G 5 50° 95% - - 49° 59.7° 46.3° - - 891.0
4/25 10:20pm 82 5 G 7 50° 95% - - 48° 59.7° 46.3° - - 891.0
4/25 10:10pm 69 3 G 4 50° 93% - - 48° 59.7° 46.3° - - 890.0
4/25 10:00pm 71 1 G 3 51° 93% - - 49° 59.7° 46.3° - - 890.0
4/25 9:50pm 183 1 G 2 50° 93% - - 49° 59.7° 46.3° - - 890.0
4/25 9:40pm 187 2 G 3 51° 93% - - 48° 59.7° 46.3° - - 890.0
4/25 9:30pm 130 3 G 4 51° 93% - - 49° 59.7° 46.3° - - 890.0
4/25 9:20pm 101 1 G 2 50° 94% - - 49° 59.7° 46.3° - - 891.0
4/25 9:10pm 348 0 G 1 50° 94% - - 48° 59.7° 46.3° - - 890.0
4/25 9:00pm 352 0 G 1 50° 93% - - 49° 59.7° 46.3° - - 890.0
4/25 8:50pm 122 0 G 2 50° 94% - - 49° 59.7° 46.3° - - 890.0
4/25 8:40pm 201 1 G 2 50° 93% - - 48° 59.7° 46.3° - - 890.0
4/25 8:30pm 233 2 G 3 51° 92% - - 48° 59.7° 46.3° - - 890.0
4/25 8:20pm 281 3 G 4 51° 92% - - 48° 59.7° 46.3° - - 890.0
4/25 8:10pm 247 2 G 3 51° 92% - - 48° 59.7° 46.3° - - 890.0
4/25 8:00pm 236 1 G 3 51° 91% - - 48° 59.7° 46.3° - - 889.0
4/25 7:50pm 271 2 G 4 51° 90% - - 48° 59.7° 46.3° - - 889.0
4/25 7:40pm 264 3 G 5 51° 89% - - 48° 59.7° 46.3° - - 889.0
4/25 7:30pm 271 4 G 7 51° 87% - - 48° 59.7° 46.3° - - 888.0
4/25 7:20pm 272 5 G 8 52° 85% - - 48° 59.7° 46.3° - - 887.0
4/25 7:10pm 282 6 G 9 52° 83% - - 47° 59.7° 46.3° - - 886.0
4/25 7:00pm 282 7 G 11 53° 81% - - 47° 59.7° 46.3° - - 886.0
4/25 6:50pm 282 7 G 10 53° 80% - - 47° 59.7° 46.3° - - 885.0
4/25 6:40pm 287 7 G 12 54° 78% - - 47° 59.7° 46.3° - - 885.0
4/25 6:30pm 291 6 G 12 54° 78% - - 48° 59.7° 46.3° - - 885.0
4/25 6:20pm 292 5 G 10 55° 77% - - 48° 59.7° 46.3° - - 885.0
4/25 6:10pm 287 5 G 11 55° 77% - - 48° 59.7° 46.3° - - 885.0
4/25 6:00pm 280 7 G 12 55° 77% - - 48° 59.7° 46.3° - - 884.0
4/25 5:50pm 293 6 G 13 55° 76% - - 48° 59.7° 46.3° - - 884.0
4/25 5:40pm 282 9 G 13 55° 75% - - 48° 59.7° 46.3° - - 884.0
4/25 5:30pm 283 8 G 14 56° 74% - - 47° 59.7° 46.3° - - 883.0
4/25 5:20pm 278 9 G 13 56° 73% - - 47° 59.7° 46.3° - - 883.0
4/25 5:10pm 277 9 G 14 56° 71% - - 47° 59.7° 46.3° - - 882.0
4/25 5:00pm 272 7 G 12 56° 70% - - 47° 59.7° 46.3° - - 882.0
4/25 4:50pm 280 8 G 14 56° 71% - - 47° 59.7° 46.3° - - 882.0
4/25 4:40pm 278 8 G 13 56° 71% - - 47° 59.7° 46.3° - - 882.0
4/25 4:30pm 291 6 G 12 56° 70% - - 47° 59.7° 46.3° - - 882.0
4/25 4:20pm 271 7 G 12 57° 69% - - 47° 59.7° 46.3° - - 882.0
4/25 4:10pm 281 7 G 12 57° 69% - - 47° 59.7° 46.3° - - 882.0
4/25 4:00pm 287 7 G 12 57° 68% - - 47° 59.7° 46.3° - - 881.0
4/25 3:50pm 287 8 G 16 57° 71% - - 47° 59.7° 46.3° - - 882.0
4/25 3:40pm 282 11 G 16 56° 73% - - 47° 59.7° 46.3° - - 883.0
4/25 3:30pm 280 10 G 16 56° 71% - - 47° 59.7° 46.3° - - 882.0
4/25 3:20pm 274 10 G 16 57° 70% - - 47° 59.7° 46.3° - - 882.0
4/25 3:10pm 264 9 G 16 57° 69% - - 46° 59.7° 46.3° - - 881.0
4/25 3:00pm 261 9 G 16 57° 68% - - 46° 59.7° 46.3° - - 881.0
4/25 2:50pm 245 6 G 13 57° 69% - - 47° 59.7° 46.3° - - 882.0
4/25 2:40pm 252 7 G 14 57° 68% - - 46° 59.7° 46.3° - - 881.0
4/25 2:30pm 257 7 G 14 57° 67% - - 46° 59.7° 46.3° - - 881.0
4/25 2:20pm 243 6 G 12 57° 67% - - 46° 59.7° 46.3° - - 881.0
4/25 2:10pm 255 7 G 15 58° 65% - - 46° 59.7° 46.3° - - 880.0
4/25 2:00pm 278 8 G 15 58° 61% - - 45° 59.7° 46.3° - - 879.0
4/25 1:50pm 279 9 G 16 58° 60% - - 45° 59.7° 46.3° - - 878.0
4/25 1:40pm 278 8 G 17 58° 61% - - 44° 59.4° 46.3° - - 879.0
4/25 1:30pm 282 8 G 15 58° 58% - - 44° 59.4° 46.3° - - 878.0
4/25 1:20pm 271 8 G 19 58° 61% - - 44° 58.5° 46.3° - - 879.0
4/25 1:10pm 284 9 G 17 57° 62% - - 44° 58.5° 46.3° - - 879.0
4/25 1:00pm 283 10 G 18 57° 62% - - 44° 58.1° 46.3° - - 879.0
4/25 12:50pm 283 7 G 16 57° 62% - - 44° 58.1° 46.3° - - 879.0
4/25 12:40pm 277 9 G 14 56° 63% - - 44° 57.4° 46.3° - - 879.0
4/25 12:30pm 278 10 G 17 56° 63% - - 44° 57.4° 46.3° - - 879.0
4/25 12:20pm 283 8 G 14 56° 64% - - 44° 56.9° 46.3° - - 879.0
4/25 12:10pm 266 7 G 15 55° 66% - - 44° 56.2° 46.3° - - 880.0
4/25 12:00pm 260 7 G 16 55° 67% - - 44° 56.2° 46.3° - - 880.0
4/25 11:50am 282 9 G 17 55° 68% - - 45° 56.2° 46.3° - - 881.0
4/25 11:40am 262 6 G 13 55° 71% - - 45° 55.9° 46.3° - - 882.0
4/25 11:30am 280 8 G 16 54° 68% - - 44° 55.1° 46.3° - - 880.0
4/25 11:20am 286 7 G 13 55° 68% - - 44° 55.1° 46.3° - - 881.0
4/25 11:10am 293 6 G 14 54° 70% - - 44° 54.9° 46.3° - - 881.0
4/25 11:00am 262 8 G 15 53° 73% - - 44° 53.8° 46.3° - - 883.0
4/25 10:50am 256 6 G 13 53° 72% - - 44° 53.8° 46.3° - - 882.0
4/25 10:40am 263 7 G 13 52° 76% - - 45° 53.8° 46.3° - - 884.0
4/25 10:30am 273 9 G 16 53° 73% - - 44° 53.8° 46.3° - - 882.0
4/25 10:20am 256 6 G 13 52° 76% - - 45° 52.8° 46.3° - - 884.0
4/25 10:10am 256 5 G 10 52° 80% - - 46° 52.8° 46.3° - - 885.0
4/25 10:00am 240 5 G 12 51° 87% - - 47° 52° 46.3° - - 888.0
4/25 9:50am 235 4 G 11 51° 90% - - 48° 52° 46.3° - - 889.0
4/25 9:40am 241 5 G 11 50° 92% - - 48° 50.4° 46.3° - - 890.0
4/25 9:30am 252 6 G 13 49° 100% - - 49° 49.8° 46.3° - - 894.0
4/25 9:20am 241 6 G 11 49° 100% - - 49° 49.5° 46.3° - - 894.0
4/25 9:10am 241 6 G 12 49° 100% - - 49° 49.5° 46.3° - - 894.0
4/25 9:00am 243 6 G 12 48° 100% - - 48° 48.6° 46.3° - - 893.0
4/25 8:50am 255 6 G 14 48° 100% - - 48° 47.9° 46.3° - - 893.0
4/25 8:40am 269 7 G 11 48° 100% - - 48° 47.9° 46.3° - - 893.0
4/25 8:30am 250 6 G 12 47° 100% - - 47° 47.8° 46.3° - - 893.0
4/25 8:20am 253 6 G 10 47° 100% - - 47° 47.8° 46.3° - - 893.0
4/25 8:10am 251 5 G 10 47° 100% - - 47° 47.7° 46.3° - - 893.0
4/25 8:00am 246 5 G 9 47° 100% - - 47° 47.7° 46.3° - - 893.0
4/25 7:50am 244 5 G 10 47° 100% - - 47° 47.6° 46.3° - - 893.0
4/25 7:40am 236 4 G 10 47° 100% - - 47° 47.5° 46.3° - - 893.0
4/25 7:30am 233 5 G 11 47° 100% - - 47° 47.4° 46.3° - - 893.0
4/25 7:20am 223 7 G 12 47° 100% - - 47° 47.4° 46.3° - - 893.0
4/25 7:10am 224 7 G 14 47° 100% - - 47° 47.4° 46.3° - - 893.0
4/25 7:00am 228 6 G 12 47° 100% - - 47° 47.4° 46.3° - - 893.0
4/25 6:50am 220 9 G 17 47° 100% - - 47° 47.4° 46.3° - - 893.0
4/25 6:40am 221 9 G 13 47° 100% - - 47° 47.4° 46.3° - - 893.0
4/25 6:30am 225 8 G 16 47° 100% - - 47° 47.4° 46.3° - - 893.0
4/25 6:20am 222 9 G 16 47° 100% - - 47° 47.4° 46.3° - - 893.0
4/25 6:10am 223 8 G 14 47° 100% - - 47° 47.4° 46.3° - - 893.0
4/25 6:00am 230 6 G 12 47° 100% - - 47° 47.4° 46.3° - - 893.0
4/25 5:50am 235 6 G 14 47° 100% - - 47° 47.4° 46.3° - - 893.0
4/25 5:40am 222 7 G 13 47° 100% - - 47° 47.4° 46.3° - - 893.0
4/25 5:30am 225 7 G 15 47° 100% - - 47° 47.4° 46.3° - - 893.0
4/25 5:20am 230 7 G 12 47° 100% - - 47° 47.4° 46.3° - - 893.0
4/25 5:10am 218 9 G 14 47° 100% - - 47° 47.4° 46.3° - - 893.0
4/25 5:00am 223 8 G 14 47° 100% - - 47° 47.4° 46.3° - - 893.0
4/25 4:50am 231 6 G 14 47° 100% - - 47° 47.4° 46.4° - - 893.0
4/25 4:40am 222 8 G 14 47° 100% - - 47° 47.4° 46.4° - - 893.0
4/25 4:30am 221 10 G 17 47° 100% - - 47° 47.4° 46.4° - - 893.0
4/25 4:20am 223 8 G 16 47° 100% - - 47° 47.4° 46.4° - - 893.0
4/25 4:10am 235 8 G 17 47° 100% - - 47° 47.4° 46.4° - - 893.0
4/25 4:00am 218 8 G 15 47° 100% - - 47° 47.4° 46.4° - - 893.0
4/25 3:50am 227 8 G 18 47° 100% - - 47° 47.4° 46.4° - - 893.0
4/25 3:40am 224 7 G 15 47° 100% - - 47° 47.3° 46.4° - - 893.0
4/25 3:30am 233 6 G 14 47° 100% - - 47° 47.3° 46.4° - - 893.0
4/25 3:20am 231 8 G 17 47° 100% - - 47° 47.3° 46.4° - - 893.0
4/25 3:10am 246 6 G 13 47° 100% - - 47° 47.3° 46.4° - - 893.0
4/25 3:00am 237 7 G 14 47° 100% - - 47° 47.3° 46.4° - - 893.0
4/25 2:50am 250 7 G 13 47° 100% - - 47° 47.3° 46.4° - - 893.0
4/25 2:40am 234 7 G 16 47° 100% - - 47° 47.3° 46.4° - - 893.0
4/25 2:30am 234 7 G 12 47° 100% - - 47° 47.3° 46.4° - - 893.0
4/25 2:20am 224 10 G 17 47° 100% - - 47° 47.3° 46.4° - - 893.0
4/25 2:10am 222 10 G 17 47° 100% - - 47° 47.3° 46.4° - - 893.0
4/25 2:00am 221 12 G 19 47° 100% - - 47° 47.3° 46.5° - - 893.0
4/25 1:50am 221 11 G 18 47° 100% - - 47° 47.3° 46.5° - - 893.0
4/25 1:40am 226 9 G 17 47° 100% - - 47° 47.3° 46.6° - - 893.0
4/25 1:30am 220 11 G 19 47° 100% - - 47° 47.3° 46.6° - - 893.0
4/25 1:20am 224 9 G 19 47° 100% - - 47° 47.3° 46.6° - - 893.0
4/25 1:10am 246 7 G 15 47° 100% - - 47° 47.3° 46.6° - - 893.0
4/25 1:00am 240 6 G 12 47° 100% - - 47° 47.3° 46.6° - - 893.0
4/25 12:50am 241 4 G 9 47° 100% - - 47° 47.3° 46.6° - - 893.0
4/25 12:40am 223 7 G 14 47° 100% - - 47° 47.3° 46.6° - - 893.0
4/25 12:30am 223 8 G 13 47° 100% - - 47° 47.3° 46.6° - - 893.0
4/25 12:20am 225 8 G 15 47° 100% - - 47° 47.2° 46.6° - - 893.0
4/25 12:10am 225 9 G 14 47° 100% - - 47° 47.2° 46.6° - - 893.0
4/25 12:00am 219 10 G 17 47° 100% - - 47° 62.7° 42.2° - - 893.0
4/24 11:50pm 231 8 G 15 47° 100% - - 47° 62.7° 42.2° - - 893.0
4/24 11:40pm 252 8 G 16 47° 100% - - 47° 62.7° 42.2° - - 893.0
4/24 11:30pm 256 8 G 15 48° 100% - - 48° 62.7° 42.2° - - 893.0
4/24 11:20pm 259 9 G 16 48° 100% - - 48° 62.7° 42.2° - - 893.0
4/24 11:10pm 260 9 G 15 48° 100% - - 48° 62.7° 42.2° - - 893.0
4/24 11:00pm 258 8 G 15 48° 100% - - 48° 62.7° 42.2° - - 893.0
4/24 10:50pm 251 6 G 12 48° 100% - - 48° 62.7° 42.2° - - 893.0
4/24 10:40pm 242 6 G 13 48° 100% - - 48° 62.7° 42.2° - - 893.0
4/24 10:30pm 254 5 G 12 49° 100% - - 49° 62.7° 42.2° - - 893.0
4/24 10:20pm 244 5 G 9 49° 100% - - 49° 62.7° 42.2° - - 893.0
4/24 10:10pm 254 6 G 12 49° 100% - - 49° 62.7° 42.2° - - 893.0
4/24 10:00pm 265 7 G 11 49° 100% - - 49° 62.7° 42.2° - - 893.0
4/24 9:50pm 262 6 G 10 49° 100% - - 49° 62.7° 42.2° - - 893.0
4/24 9:40pm 257 6 G 12 49° 100% - - 49° 62.7° 42.2° - - 893.0
4/24 9:30pm 261 6 G 11 49° 100% - - 49° 62.7° 42.2° - - 893.0
4/24 9:20pm 260 6 G 12 49° 100% - - 49° 62.7° 42.2° - - 893.0
4/24 9:10pm 257 5 G 11 49° 100% - - 49° 62.7° 42.2° - - 893.0
4/24 9:00pm 246 5 G 11 49° 100% - - 49° 62.7° 42.2° - - 893.0
4/24 8:50pm 241 5 G 11 50° 100% - - 50° 62.7° 42.2° - - 893.0
4/24 8:40pm 257 6 G 12 50° 100% - - 50° 62.7° 42.2° - - 894.0
4/24 8:30pm 253 5 G 10 50° 100% - - 50° 62.7° 42.2° - - 894.0
4/24 8:20pm 255 5 G 10 50° 100% - - 50° 62.7° 42.2° - - 893.0
4/24 8:10pm 245 5 G 10 50° 100% - - 50° 62.7° 42.2° - - 893.0
4/24 8:00pm 232 5 G 11 50° 100% - - 50° 62.7° 42.2° - - 893.0
4/24 7:50pm 242 5 G 10 51° 99% - - 50° 62.7° 42.2° - - 893.0
4/24 7:40pm 238 5 G 10 51° 98% - - 50° 62.7° 42.2° - - 893.0
4/24 7:30pm 240 5 G 9 51° 98% - - 50° 62.7° 42.2° - - 892.0
4/24 7:20pm 244 5 G 12 52° 96% - - 51° 62.7° 42.2° - - 892.0
4/24 7:10pm 256 7 G 12 52° 96% - - 51° 62.7° 42.2° - - 892.0
4/24 7:00pm 253 7 G 13 52° 93% - - 50° 62.7° 42.2° - - 891.0
4/24 6:50pm 255 7 G 12 53° 89% - - 49° 62.7° 42.2° - - 889.0
4/24 6:40pm 256 8 G 14 53° 85% - - 49° 62.7° 42.2° - - 887.0
4/24 6:30pm 257 8 G 14 54° 81% - - 48° 62.7° 42.2° - - 886.0
4/24 6:20pm 248 6 G 11 55° 79% - - 48° 62.7° 42.2° - - 885.0
4/24 6:10pm 236 6 G 12 55° 77% - - 48° 62.7° 42.2° - - 884.0
4/24 6:00pm 235 6 G 14 56° 76% - - 48° 62.7° 42.2° - - 884.0